sensor_id;sensor_type;location;lat;lon;timestamp;P1;durP1;ratioP1;P2;durP2;ratioP2
76548;SDS011;65391;52.068;4.542;2023-04-29T00:00:39;23.1;;;13.2;;
76548;SDS011;65391;52.068;4.542;2023-04-29T00:03:05;23.1;;;13.2;;
76548;SDS011;65391;52.068;4.542;2023-04-29T00:05:29;22.6;;;12.9;;
76548;SDS011;65391;52.068;4.542;2023-04-29T00:07:54;22.6;;;12.9;;
76548;SDS011;65391;52.068;4.542;2023-04-29T00:10:19;22.6;;;12.9;;
76548;SDS011;65391;52.068;4.542;2023-04-29T00:12:44;22.6;;;12.9;;
76548;SDS011;65391;52.068;4.542;2023-04-29T00:15:10;24.6;;;14.5;;
76548;SDS011;65391;52.068;4.542;2023-04-29T00:17:34;24.6;;;14.5;;
76548;SDS011;65391;52.068;4.542;2023-04-29T00:19:59;24.6;;;14.5;;
76548;SDS011;65391;52.068;4.542;2023-04-29T00:22:24;24.6;;;14.5;;
76548;SDS011;65391;52.068;4.542;2023-04-29T00:24:49;25.4;;;15.2;;
76548;SDS011;65391;52.068;4.542;2023-04-29T00:27:14;25.4;;;15.2;;
76548;SDS011;65391;52.068;4.542;2023-04-29T00:29:39;25.4;;;15.2;;
76548;SDS011;65391;52.068;4.542;2023-04-29T00:32:04;25.4;;;15.2;;
76548;SDS011;65391;52.068;4.542;2023-04-29T00:34:29;26;;;16.1;;
76548;SDS011;65391;52.068;4.542;2023-04-29T00:36:54;26;;;16.1;;
76548;SDS011;65391;52.068;4.542;2023-04-29T00:39:19;26;;;16.1;;
76548;SDS011;65391;52.068;4.542;2023-04-29T00:41:44;26;;;16.1;;
76548;SDS011;65391;52.068;4.542;2023-04-29T00:44:09;25.2;;;15.3;;
76548;SDS011;65391;52.068;4.542;2023-04-29T00:46:34;25.2;;;15.3;;
76548;SDS011;65391;52.068;4.542;2023-04-29T00:48:59;25.2;;;15.3;;
76548;SDS011;65391;52.068;4.542;2023-04-29T00:51:24;25.2;;;15.3;;
76548;SDS011;65391;52.068;4.542;2023-04-29T00:53:50;24.2;;;14.3;;
76548;SDS011;65391;52.068;4.542;2023-04-29T00:56:14;24.2;;;14.3;;
76548;SDS011;65391;52.068;4.542;2023-04-29T00:58:40;24.2;;;14.3;;
76548;SDS011;65391;52.068;4.542;2023-04-29T01:01:04;24.2;;;14.3;;
76548;SDS011;65391;52.068;4.542;2023-04-29T01:03:30;24.2;;;14.3;;
76548;SDS011;65391;52.068;4.542;2023-04-29T01:06:00;23.7;;;14.9;;
76548;SDS011;65391;52.068;4.542;2023-04-29T01:08:23;23.7;;;14.9;;
76548;SDS011;65391;52.068;4.542;2023-04-29T01:10:48;23.7;;;14.9;;
76548;SDS011;65391;52.068;4.542;2023-04-29T01:13:13;23.7;;;14.9;;
76548;SDS011;65391;52.068;4.542;2023-04-29T01:15:38;24.1;;;14.5;;
76548;SDS011;65391;52.068;4.542;2023-04-29T01:18:04;24.1;;;14.5;;
76548;SDS011;65391;52.068;4.542;2023-04-29T01:20:25;24.1;;;14.5;;
76548;SDS011;65391;52.068;4.542;2023-04-29T01:22:49;24.1;;;14.5;;
76548;SDS011;65391;52.068;4.542;2023-04-29T01:25:14;24;;;14;;
76548;SDS011;65391;52.068;4.542;2023-04-29T01:27:44;24;;;14;;
76548;SDS011;65391;52.068;4.542;2023-04-29T01:30:08;24;;;14;;
76548;SDS011;65391;52.068;4.542;2023-04-29T01:32:36;24;;;14;;
76548;SDS011;65391;52.068;4.542;2023-04-29T01:34:58;24.3;;;14.4;;
76548;SDS011;65391;52.068;4.542;2023-04-29T01:37:25;24.3;;;14.4;;
76548;SDS011;65391;52.068;4.542;2023-04-29T01:39:45;24.3;;;14.4;;
76548;SDS011;65391;52.068;4.542;2023-04-29T01:42:16;24.3;;;14.4;;
76548;SDS011;65391;52.068;4.542;2023-04-29T01:44:34;24.1;;;14.4;;
76548;SDS011;65391;52.068;4.542;2023-04-29T01:47:00;24.1;;;14.4;;
76548;SDS011;65391;52.068;4.542;2023-04-29T01:49:25;24.1;;;14.4;;
76548;SDS011;65391;52.068;4.542;2023-04-29T01:51:50;24.1;;;14.4;;
76548;SDS011;65391;52.068;4.542;2023-04-29T01:54:14;23.9;;;14.4;;
76548;SDS011;65391;52.068;4.542;2023-04-29T01:56:39;23.9;;;14.4;;
76548;SDS011;65391;52.068;4.542;2023-04-29T01:59:05;23.9;;;14.4;;
76548;SDS011;65391;52.068;4.542;2023-04-29T02:01:29;23.9;;;14.4;;
76548;SDS011;65391;52.068;4.542;2023-04-29T02:03:55;23.8;;;14.3;;
76548;SDS011;65391;52.068;4.542;2023-04-29T02:06:20;23.8;;;14.3;;
76548;SDS011;65391;52.068;4.542;2023-04-29T02:08:45;23.8;;;14.3;;
76548;SDS011;65391;52.068;4.542;2023-04-29T02:11:10;23.8;;;14.3;;
76548;SDS011;65391;52.068;4.542;2023-04-29T02:13:35;23.8;;;14.3;;
76548;SDS011;65391;52.068;4.542;2023-04-29T02:16:06;23;;;13.1;;
76548;SDS011;65391;52.068;4.542;2023-04-29T02:18:25;23;;;13.1;;
76548;SDS011;65391;52.068;4.542;2023-04-29T02:20:50;23;;;13.1;;
76548;SDS011;65391;52.068;4.542;2023-04-29T02:23:15;23;;;13.1;;
76548;SDS011;65391;52.068;4.542;2023-04-29T02:25:40;22.3;;;12.4;;
76548;SDS011;65391;52.068;4.542;2023-04-29T02:28:05;22.3;;;12.4;;
76548;SDS011;65391;52.068;4.542;2023-04-29T02:30:30;22.3;;;12.4;;
76548;SDS011;65391;52.068;4.542;2023-04-29T02:32:55;22.3;;;12.4;;
76548;SDS011;65391;52.068;4.542;2023-04-29T02:35:20;21.9;;;12;;
76548;SDS011;65391;52.068;4.542;2023-04-29T02:37:45;21.9;;;12;;
76548;SDS011;65391;52.068;4.542;2023-04-29T02:40:10;21.9;;;12;;
76548;SDS011;65391;52.068;4.542;2023-04-29T02:42:35;21.9;;;12;;
76548;SDS011;65391;52.068;4.542;2023-04-29T02:45:00;21.7;;;11.9;;
76548;SDS011;65391;52.068;4.542;2023-04-29T02:47:25;21.7;;;11.9;;
76548;SDS011;65391;52.068;4.542;2023-04-29T02:49:50;21.7;;;11.9;;
76548;SDS011;65391;52.068;4.542;2023-04-29T02:52:15;21.7;;;11.9;;
76548;SDS011;65391;52.068;4.542;2023-04-29T02:54:40;22.1;;;12.1;;
76548;SDS011;65391;52.068;4.542;2023-04-29T02:57:05;22.1;;;12.1;;
76548;SDS011;65391;52.068;4.542;2023-04-29T02:59:30;22.1;;;12.1;;
76548;SDS011;65391;52.068;4.542;2023-04-29T03:01:55;22.1;;;12.1;;
76548;SDS011;65391;52.068;4.542;2023-04-29T03:04:20;20.6;;;11.5;;
76548;SDS011;65391;52.068;4.542;2023-04-29T03:06:45;20.6;;;11.5;;
76548;SDS011;65391;52.068;4.542;2023-04-29T03:09:10;20.6;;;11.5;;
76548;SDS011;65391;52.068;4.542;2023-04-29T03:11:35;20.6;;;11.5;;
76548;SDS011;65391;52.068;4.542;2023-04-29T03:14:00;21.3;;;12;;
76548;SDS011;65391;52.068;4.542;2023-04-29T03:16:25;21.3;;;12;;
76548;SDS011;65391;52.068;4.542;2023-04-29T03:18:50;21.3;;;12;;
76548;SDS011;65391;52.068;4.542;2023-04-29T03:21:15;21.3;;;12;;
76548;SDS011;65391;52.068;4.542;2023-04-29T03:23:40;21.3;;;12;;
76548;SDS011;65391;52.068;4.542;2023-04-29T03:26:05;21.8;;;12;;
76548;SDS011;65391;52.068;4.542;2023-04-29T03:28:30;21.8;;;12;;
76548;SDS011;65391;52.068;4.542;2023-04-29T03:30:55;21.8;;;12;;
76548;SDS011;65391;52.068;4.542;2023-04-29T03:33:20;21.8;;;12;;
76548;SDS011;65391;52.068;4.542;2023-04-29T03:35:45;21.4;;;11.4;;
76548;SDS011;65391;52.068;4.542;2023-04-29T03:38:10;21.4;;;11.4;;
76548;SDS011;65391;52.068;4.542;2023-04-29T03:40:35;21.4;;;11.4;;
76548;SDS011;65391;52.068;4.542;2023-04-29T03:43:00;21.4;;;11.4;;
76548;SDS011;65391;52.068;4.542;2023-04-29T03:45:25;21.5;;;12;;
76548;SDS011;65391;52.068;4.542;2023-04-29T03:47:50;21.5;;;12;;
76548;SDS011;65391;52.068;4.542;2023-04-29T03:50:15;21.5;;;12;;
76548;SDS011;65391;52.068;4.542;2023-04-29T03:52:40;21.5;;;12;;
76548;SDS011;65391;52.068;4.542;2023-04-29T03:55:05;23.4;;;13.2;;
76548;SDS011;65391;52.068;4.542;2023-04-29T03:57:30;23.4;;;13.2;;
76548;SDS011;65391;52.068;4.542;2023-04-29T03:59:55;23.4;;;13.2;;
76548;SDS011;65391;52.068;4.542;2023-04-29T04:02:20;23.4;;;13.2;;
76548;SDS011;65391;52.068;4.542;2023-04-29T04:04:45;22.8;;;12.7;;
76548;SDS011;65391;52.068;4.542;2023-04-29T04:07:10;22.8;;;12.7;;
76548;SDS011;65391;52.068;4.542;2023-04-29T04:09:35;22.8;;;12.7;;
76548;SDS011;65391;52.068;4.542;2023-04-29T04:12:00;22.8;;;12.7;;
76548;SDS011;65391;52.068;4.542;2023-04-29T04:14:25;21.5;;;11.7;;
76548;SDS011;65391;52.068;4.542;2023-04-29T04:16:50;21.5;;;11.7;;
76548;SDS011;65391;52.068;4.542;2023-04-29T04:19:15;21.5;;;11.7;;
76548;SDS011;65391;52.068;4.542;2023-04-29T04:21:40;21.5;;;11.7;;
76548;SDS011;65391;52.068;4.542;2023-04-29T04:24:05;22;;;12;;
76548;SDS011;65391;52.068;4.542;2023-04-29T04:26:30;22;;;12;;
76548;SDS011;65391;52.068;4.542;2023-04-29T04:28:55;22;;;12;;
76548;SDS011;65391;52.068;4.542;2023-04-29T04:31:20;22;;;12;;
76548;SDS011;65391;52.068;4.542;2023-04-29T04:33:45;22;;;12;;
76548;SDS011;65391;52.068;4.542;2023-04-29T04:36:10;22.4;;;12.6;;
76548;SDS011;65391;52.068;4.542;2023-04-29T04:38:35;22.4;;;12.6;;
76548;SDS011;65391;52.068;4.542;2023-04-29T04:41:00;22.4;;;12.6;;
76548;SDS011;65391;52.068;4.542;2023-04-29T04:43:25;22.4;;;12.6;;
76548;SDS011;65391;52.068;4.542;2023-04-29T04:45:50;22.4;;;12.8;;
76548;SDS011;65391;52.068;4.542;2023-04-29T04:48:15;22.4;;;12.8;;
76548;SDS011;65391;52.068;4.542;2023-04-29T04:50:40;22.4;;;12.8;;
76548;SDS011;65391;52.068;4.542;2023-04-29T04:53:05;22.4;;;12.8;;
76548;SDS011;65391;52.068;4.542;2023-04-29T04:55:30;23.4;;;13.7;;
76548;SDS011;65391;52.068;4.542;2023-04-29T04:57:55;23.4;;;13.7;;
76548;SDS011;65391;52.068;4.542;2023-04-29T05:00:20;23.4;;;13.7;;
76548;SDS011;65391;52.068;4.542;2023-04-29T05:02:45;23.4;;;13.7;;
76548;SDS011;65391;52.068;4.542;2023-04-29T05:05:10;23.6;;;13.9;;
76548;SDS011;65391;52.068;4.542;2023-04-29T05:07:35;23.6;;;13.9;;
76548;SDS011;65391;52.068;4.542;2023-04-29T05:10:00;23.6;;;13.9;;
76548;SDS011;65391;52.068;4.542;2023-04-29T05:12:26;23.6;;;13.9;;
76548;SDS011;65391;52.068;4.542;2023-04-29T05:14:51;23.3;;;13.9;;
76548;SDS011;65391;52.068;4.542;2023-04-29T05:17:15;23.3;;;13.9;;
76548;SDS011;65391;52.068;4.542;2023-04-29T05:19:40;23.3;;;13.9;;
76548;SDS011;65391;52.068;4.542;2023-04-29T05:22:05;23.3;;;13.9;;
76548;SDS011;65391;52.068;4.542;2023-04-29T05:24:30;24;;;14.3;;
76548;SDS011;65391;52.068;4.542;2023-04-29T05:26:55;24;;;14.3;;
76548;SDS011;65391;52.068;4.542;2023-04-29T05:29:20;24;;;14.3;;
76548;SDS011;65391;52.068;4.542;2023-04-29T05:31:45;24;;;14.3;;
76548;SDS011;65391;52.068;4.542;2023-04-29T05:34:10;24.3;;;14.5;;
76548;SDS011;65391;52.068;4.542;2023-04-29T05:36:35;24.3;;;14.5;;
76548;SDS011;65391;52.068;4.542;2023-04-29T05:39:00;24.3;;;14.5;;
76548;SDS011;65391;52.068;4.542;2023-04-29T05:41:25;24.3;;;14.5;;
76548;SDS011;65391;52.068;4.542;2023-04-29T05:43:50;24.3;;;14.5;;
76548;SDS011;65391;52.068;4.542;2023-04-29T05:46:15;22.8;;;13;;
76548;SDS011;65391;52.068;4.542;2023-04-29T05:48:40;22.8;;;13;;
76548;SDS011;65391;52.068;4.542;2023-04-29T05:51:05;22.8;;;13;;
76548;SDS011;65391;52.068;4.542;2023-04-29T05:53:30;22.8;;;13;;
76548;SDS011;65391;52.068;4.542;2023-04-29T05:55:56;23.8;;;13.7;;
76548;SDS011;65391;52.068;4.542;2023-04-29T05:58:20;23.8;;;13.7;;
76548;SDS011;65391;52.068;4.542;2023-04-29T06:00:45;23.8;;;13.7;;
76548;SDS011;65391;52.068;4.542;2023-04-29T06:03:10;23.8;;;13.7;;
76548;SDS011;65391;52.068;4.542;2023-04-29T06:05:35;22.7;;;12.2;;
76548;SDS011;65391;52.068;4.542;2023-04-29T06:08:00;22.7;;;12.2;;
76548;SDS011;65391;52.068;4.542;2023-04-29T06:10:26;22.7;;;12.2;;
76548;SDS011;65391;52.068;4.542;2023-04-29T06:12:50;22.7;;;12.2;;
76548;SDS011;65391;52.068;4.542;2023-04-29T06:15:15;22.6;;;11.7;;
76548;SDS011;65391;52.068;4.542;2023-04-29T06:17:40;22.6;;;11.7;;
76548;SDS011;65391;52.068;4.542;2023-04-29T06:20:06;22.6;;;11.7;;
76548;SDS011;65391;52.068;4.542;2023-04-29T06:22:30;22.6;;;11.7;;
76548;SDS011;65391;52.068;4.542;2023-04-29T06:24:55;20.1;;;10.2;;
76548;SDS011;65391;52.068;4.542;2023-04-29T06:27:20;20.1;;;10.2;;
76548;SDS011;65391;52.068;4.542;2023-04-29T06:29:45;20.1;;;10.2;;
76548;SDS011;65391;52.068;4.542;2023-04-29T06:32:10;20.1;;;10.2;;
76548;SDS011;65391;52.068;4.542;2023-04-29T06:34:35;15.3;;;10;;
76548;SDS011;65391;52.068;4.542;2023-04-29T06:37:00;15.3;;;10;;
76548;SDS011;65391;52.068;4.542;2023-04-29T06:39:25;15.3;;;10;;
76548;SDS011;65391;52.068;4.542;2023-04-29T06:41:50;15.3;;;10;;
76548;SDS011;65391;52.068;4.542;2023-04-29T06:44:15;18.2;;;9.9;;
76548;SDS011;65391;52.068;4.542;2023-04-29T06:46:40;18.2;;;9.9;;
76548;SDS011;65391;52.068;4.542;2023-04-29T06:49:05;18.2;;;9.9;;
76548;SDS011;65391;52.068;4.542;2023-04-29T06:51:30;18.2;;;9.9;;
76548;SDS011;65391;52.068;4.542;2023-04-29T06:53:55;18.2;;;9.9;;
76548;SDS011;65391;52.068;4.542;2023-04-29T06:56:20;18.4;;;9.7;;
76548;SDS011;65391;52.068;4.542;2023-04-29T06:58:45;18.4;;;9.7;;
76548;SDS011;65391;52.068;4.542;2023-04-29T07:01:10;18.4;;;9.7;;
76548;SDS011;65391;52.068;4.542;2023-04-29T07:03:35;18.4;;;9.7;;
76548;SDS011;65391;52.068;4.542;2023-04-29T07:06:00;14.1;;;8.6;;
76548;SDS011;65391;52.068;4.542;2023-04-29T07:08:25;14.1;;;8.6;;
76548;SDS011;65391;52.068;4.542;2023-04-29T07:10:54;14.1;;;8.6;;
76548;SDS011;65391;52.068;4.542;2023-04-29T07:13:15;14.1;;;8.6;;
76548;SDS011;65391;52.068;4.542;2023-04-29T07:15:41;16.4;;;9;;
76548;SDS011;65391;52.068;4.542;2023-04-29T07:18:05;16.4;;;9;;
76548;SDS011;65391;52.068;4.542;2023-04-29T07:20:30;16.4;;;9;;
76548;SDS011;65391;52.068;4.542;2023-04-29T07:22:55;16.4;;;9;;
76548;SDS011;65391;52.068;4.542;2023-04-29T07:25:20;16;;;8.7;;
76548;SDS011;65391;52.068;4.542;2023-04-29T07:27:45;16;;;8.7;;
76548;SDS011;65391;52.068;4.542;2023-04-29T07:30:10;16;;;8.7;;
76548;SDS011;65391;52.068;4.542;2023-04-29T07:32:35;16;;;8.7;;
76548;SDS011;65391;52.068;4.542;2023-04-29T07:35:00;14.3;;;7;;
76548;SDS011;65391;52.068;4.542;2023-04-29T07:37:25;14.3;;;7;;
76548;SDS011;65391;52.068;4.542;2023-04-29T07:39:50;14.3;;;7;;
76548;SDS011;65391;52.068;4.542;2023-04-29T07:42:15;14.3;;;7;;
76548;SDS011;65391;52.068;4.542;2023-04-29T07:44:40;14.4;;;7.5;;
76548;SDS011;65391;52.068;4.542;2023-04-29T07:47:05;14.4;;;7.5;;
76548;SDS011;65391;52.068;4.542;2023-04-29T07:49:30;14.4;;;7.5;;
76548;SDS011;65391;52.068;4.542;2023-04-29T07:51:55;14.4;;;7.5;;
76548;SDS011;65391;52.068;4.542;2023-04-29T07:54:20;12;;;7.5;;
76548;SDS011;65391;52.068;4.542;2023-04-29T07:56:45;12;;;7.5;;
76548;SDS011;65391;52.068;4.542;2023-04-29T07:59:10;12;;;7.5;;
76548;SDS011;65391;52.068;4.542;2023-04-29T08:01:36;12;;;7.5;;
76548;SDS011;65391;52.068;4.542;2023-04-29T08:04:00;12;;;7.5;;
76548;SDS011;65391;52.068;4.542;2023-04-29T08:06:25;12.4;;;7.6;;
76548;SDS011;65391;52.068;4.542;2023-04-29T08:08:50;12.4;;;7.6;;
76548;SDS011;65391;52.068;4.542;2023-04-29T08:11:16;12.4;;;7.6;;
76548;SDS011;65391;52.068;4.542;2023-04-29T08:13:40;12.4;;;7.6;;
76548;SDS011;65391;52.068;4.542;2023-04-29T08:16:06;9.5;;;6.8;;
76548;SDS011;65391;52.068;4.542;2023-04-29T08:18:30;9.5;;;6.8;;
76548;SDS011;65391;52.068;4.542;2023-04-29T08:20:55;9.5;;;6.8;;
76548;SDS011;65391;52.068;4.542;2023-04-29T08:23:20;9.5;;;6.8;;
76548;SDS011;65391;52.068;4.542;2023-04-29T08:25:45;12.1;;;7.2;;
76548;SDS011;65391;52.068;4.542;2023-04-29T08:28:10;12.1;;;7.2;;
76548;SDS011;65391;52.068;4.542;2023-04-29T08:30:37;12.1;;;7.2;;
76548;SDS011;65391;52.068;4.542;2023-04-29T08:33:00;12.1;;;7.2;;
76548;SDS011;65391;52.068;4.542;2023-04-29T08:35:26;11.7;;;6.9;;
76548;SDS011;65391;52.068;4.542;2023-04-29T08:37:52;11.7;;;6.9;;
76548;SDS011;65391;52.068;4.542;2023-04-29T08:40:16;11.7;;;6.9;;
76548;SDS011;65391;52.068;4.542;2023-04-29T08:42:40;11.7;;;6.9;;
76548;SDS011;65391;52.068;4.542;2023-04-29T08:45:06;14.1;;;6.2;;
76548;SDS011;65391;52.068;4.542;2023-04-29T08:47:31;14.1;;;6.2;;
76548;SDS011;65391;52.068;4.542;2023-04-29T08:49:56;14.1;;;6.2;;
76548;SDS011;65391;52.068;4.542;2023-04-29T08:52:20;14.1;;;6.2;;
76548;SDS011;65391;52.068;4.542;2023-04-29T08:54:46;10.8;;;6.3;;
76548;SDS011;65391;52.068;4.542;2023-04-29T08:57:11;10.8;;;6.3;;
76548;SDS011;65391;52.068;4.542;2023-04-29T08:59:36;10.8;;;6.3;;
76548;SDS011;65391;52.068;4.542;2023-04-29T09:02:01;10.8;;;6.3;;
76548;SDS011;65391;52.068;4.542;2023-04-29T09:04:30;12.5;;;6.9;;
76548;SDS011;65391;52.068;4.542;2023-04-29T09:06:51;12.5;;;6.9;;
76548;SDS011;65391;52.068;4.542;2023-04-29T09:09:16;12.5;;;6.9;;
76548;SDS011;65391;52.068;4.542;2023-04-29T09:11:41;12.5;;;6.9;;
76548;SDS011;65391;52.068;4.542;2023-04-29T09:14:06;12.5;;;6.9;;
76548;SDS011;65391;52.068;4.542;2023-04-29T09:16:31;10.5;;;6.1;;
76548;SDS011;65391;52.068;4.542;2023-04-29T09:18:56;10.5;;;6.1;;
76548;SDS011;65391;52.068;4.542;2023-04-29T09:21:22;10.5;;;6.1;;
76548;SDS011;65391;52.068;4.542;2023-04-29T09:23:47;10.5;;;6.1;;
76548;SDS011;65391;52.068;4.542;2023-04-29T09:26:11;13;;;6.8;;
76548;SDS011;65391;52.068;4.542;2023-04-29T09:28:36;13;;;6.8;;
76548;SDS011;65391;52.068;4.542;2023-04-29T09:31:01;13;;;6.8;;
76548;SDS011;65391;52.068;4.542;2023-04-29T09:33:26;13;;;6.8;;
76548;SDS011;65391;52.068;4.542;2023-04-29T09:35:51;13;;;6.8;;
76548;SDS011;65391;52.068;4.542;2023-04-29T09:38:16;13;;;6.8;;
76548;SDS011;65391;52.068;4.542;2023-04-29T09:40:41;13;;;6.8;;
76548;SDS011;65391;52.068;4.542;2023-04-29T09:43:11;13;;;6.8;;
76548;SDS011;65391;52.068;4.542;2023-04-29T09:45:32;11.6;;;6.2;;
76548;SDS011;65391;52.068;4.542;2023-04-29T09:48:00;11.6;;;6.2;;
76548;SDS011;65391;52.068;4.542;2023-04-29T09:50:21;11.6;;;6.2;;
76548;SDS011;65391;52.068;4.542;2023-04-29T09:52:46;11.6;;;6.2;;
76548;SDS011;65391;52.068;4.542;2023-04-29T09:55:11;12.3;;;6.5;;
76548;SDS011;65391;52.068;4.542;2023-04-29T09:57:38;12.3;;;6.5;;
76548;SDS011;65391;52.068;4.542;2023-04-29T10:00:01;12.3;;;6.5;;
76548;SDS011;65391;52.068;4.542;2023-04-29T10:02:26;12.3;;;6.5;;
76548;SDS011;65391;52.068;4.542;2023-04-29T10:04:52;12;;;6.4;;
76548;SDS011;65391;52.068;4.542;2023-04-29T10:07:16;12;;;6.4;;
76548;SDS011;65391;52.068;4.542;2023-04-29T10:09:41;12;;;6.4;;
76548;SDS011;65391;52.068;4.542;2023-04-29T10:14:31;12;;;6.4;;
76548;SDS011;65391;52.068;4.542;2023-04-29T10:16:58;12;;;6.4;;
76548;SDS011;65391;52.068;4.542;2023-04-29T10:19:24;12;;;6.4;;
76548;SDS011;65391;52.068;4.542;2023-04-29T10:21:46;12;;;6.4;;
76548;SDS011;65391;52.068;4.542;2023-04-29T10:24:11;12;;;6.4;;
76548;SDS011;65391;52.068;4.542;2023-04-29T10:26:36;12;;;6.4;;
76548;SDS011;65391;52.068;4.542;2023-04-29T10:29:01;12;;;6.4;;
76548;SDS011;65391;52.068;4.542;2023-04-29T10:31:26;12;;;6.4;;
76548;SDS011;65391;52.068;4.542;2023-04-29T10:33:51;12;;;6.4;;
76548;SDS011;65391;52.068;4.542;2023-04-29T10:36:16;12;;;6.4;;
76548;SDS011;65391;52.068;4.542;2023-04-29T10:38:42;12;;;6.4;;
76548;SDS011;65391;52.068;4.542;2023-04-29T10:41:08;12;;;6.4;;
76548;SDS011;65391;52.068;4.542;2023-04-29T10:43:31;12;;;6.4;;
76548;SDS011;65391;52.068;4.542;2023-04-29T10:46:27;12;;;6.4;;
76548;SDS011;65391;52.068;4.542;2023-04-29T10:48:21;12;;;6.4;;
76548;SDS011;65391;52.068;4.542;2023-04-29T10:50:59;12;;;6.4;;
76548;SDS011;65391;52.068;4.542;2023-04-29T10:53:11;12;;;6.4;;
76548;SDS011;65391;52.068;4.542;2023-04-29T10:55:37;12;;;6.4;;
76548;SDS011;65391;52.068;4.542;2023-04-29T10:58:01;12;;;6.4;;
76548;SDS011;65391;52.068;4.542;2023-04-29T11:00:27;12;;;6.4;;
76548;SDS011;65391;52.068;4.542;2023-04-29T11:02:52;12;;;6.4;;
76548;SDS011;65391;52.068;4.542;2023-04-29T11:05:17;12;;;6.4;;
76548;SDS011;65391;52.068;4.542;2023-04-29T11:07:41;12;;;6.4;;
76548;SDS011;65391;52.068;4.542;2023-04-29T11:10:06;12;;;6.4;;
76548;SDS011;65391;52.068;4.542;2023-04-29T11:12:31;12;;;6.4;;
76548;SDS011;65391;52.068;4.542;2023-04-29T11:14:56;12;;;6.4;;
76548;SDS011;65391;52.068;4.542;2023-04-29T11:17:21;12;;;6.4;;
76548;SDS011;65391;52.068;4.542;2023-04-29T11:19:46;12;;;6.4;;
76548;SDS011;65391;52.068;4.542;2023-04-29T11:22:13;12;;;6.4;;
76548;SDS011;65391;52.068;4.542;2023-04-29T11:24:36;12;;;6.4;;
76548;SDS011;65391;52.068;4.542;2023-04-29T11:27:01;12;;;6.4;;
76548;SDS011;65391;52.068;4.542;2023-04-29T11:29:26;12;;;6.4;;
76548;SDS011;65391;52.068;4.542;2023-04-29T11:31:57;12;;;6.4;;
76548;SDS011;65391;52.068;4.542;2023-04-29T11:34:16;12;;;6.4;;
76548;SDS011;65391;52.068;4.542;2023-04-29T11:36:41;12;;;6.4;;
76548;SDS011;65391;52.068;4.542;2023-04-29T11:39:06;12;;;6.4;;
76548;SDS011;65391;52.068;4.542;2023-04-29T11:41:31;12;;;6.4;;
76548;SDS011;65391;52.068;4.542;2023-04-29T11:43:56;12;;;6.4;;
76548;SDS011;65391;52.068;4.542;2023-04-29T11:46:21;12;;;6.4;;
76548;SDS011;65391;52.068;4.542;2023-04-29T11:48:46;12;;;6.4;;
76548;SDS011;65391;52.068;4.542;2023-04-29T11:51:11;12;;;6.4;;
76548;SDS011;65391;52.068;4.542;2023-04-29T11:53:36;12;;;6.4;;
76548;SDS011;65391;52.068;4.542;2023-04-29T11:56:01;12;;;6.4;;
76548;SDS011;65391;52.068;4.542;2023-04-29T11:58:26;12;;;6.4;;
76548;SDS011;65391;52.068;4.542;2023-04-29T12:00:51;12;;;6.4;;
76548;SDS011;65391;52.068;4.542;2023-04-29T12:03:17;12;;;6.4;;
76548;SDS011;65391;52.068;4.542;2023-04-29T12:05:45;12;;;6.4;;
76548;SDS011;65391;52.068;4.542;2023-04-29T12:08:06;12;;;6.4;;
76548;SDS011;65391;52.068;4.542;2023-04-29T12:10:31;12;;;6.4;;
76548;SDS011;65391;52.068;4.542;2023-04-29T12:12:56;12;;;6.4;;
76548;SDS011;65391;52.068;4.542;2023-04-29T12:15:21;12;;;6.4;;
76548;SDS011;65391;52.068;4.542;2023-04-29T12:17:46;12;;;6.4;;
76548;SDS011;65391;52.068;4.542;2023-04-29T12:20:11;12;;;6.4;;
76548;SDS011;65391;52.068;4.542;2023-04-29T12:22:36;12;;;6.4;;
76548;SDS011;65391;52.068;4.542;2023-04-29T12:25:02;12;;;6.4;;
76548;SDS011;65391;52.068;4.542;2023-04-29T12:27:26;12;;;6.4;;
76548;SDS011;65391;52.068;4.542;2023-04-29T12:29:51;12;;;6.4;;
76548;SDS011;65391;52.068;4.542;2023-04-29T12:32:17;12;;;6.4;;
76548;SDS011;65391;52.068;4.542;2023-04-29T12:34:41;12;;;6.4;;
76548;SDS011;65391;52.068;4.542;2023-04-29T12:37:06;12;;;6.4;;
76548;SDS011;65391;52.068;4.542;2023-04-29T12:39:31;12;;;6.4;;
76548;SDS011;65391;52.068;4.542;2023-04-29T12:41:57;12;;;6.4;;
76548;SDS011;65391;52.068;4.542;2023-04-29T12:44:21;12;;;6.4;;
76548;SDS011;65391;52.068;4.542;2023-04-29T12:46:46;12;;;6.4;;
76548;SDS011;65391;52.068;4.542;2023-04-29T12:49:11;12;;;6.4;;
76548;SDS011;65391;52.068;4.542;2023-04-29T12:51:36;12;;;6.4;;
76548;SDS011;65391;52.068;4.542;2023-04-29T12:54:02;12;;;6.4;;
76548;SDS011;65391;52.068;4.542;2023-04-29T12:56:26;12;;;6.4;;
76548;SDS011;65391;52.068;4.542;2023-04-29T12:58:51;12;;;6.4;;
76548;SDS011;65391;52.068;4.542;2023-04-29T13:01:16;12;;;6.4;;
76548;SDS011;65391;52.068;4.542;2023-04-29T13:03:41;12;;;6.4;;
76548;SDS011;65391;52.068;4.542;2023-04-29T13:06:06;12;;;6.4;;
76548;SDS011;65391;52.068;4.542;2023-04-29T13:08:31;12;;;6.4;;
76548;SDS011;65391;52.068;4.542;2023-04-29T13:10:56;12;;;6.4;;
76548;SDS011;65391;52.068;4.542;2023-04-29T13:13:21;12;;;6.4;;
76548;SDS011;65391;52.068;4.542;2023-04-29T13:15:46;12;;;6.4;;
76548;SDS011;65391;52.068;4.542;2023-04-29T13:18:11;12;;;6.4;;
76548;SDS011;65391;52.068;4.542;2023-04-29T13:20:36;12;;;6.4;;
76548;SDS011;65391;52.068;4.542;2023-04-29T13:23:01;12;;;6.4;;
76548;SDS011;65391;52.068;4.542;2023-04-29T13:25:26;12;;;6.4;;
76548;SDS011;65391;52.068;4.542;2023-04-29T13:27:51;12;;;6.4;;
76548;SDS011;65391;52.068;4.542;2023-04-29T13:30:16;12;;;6.4;;
76548;SDS011;65391;52.068;4.542;2023-04-29T13:32:41;12;;;6.4;;
76548;SDS011;65391;52.068;4.542;2023-04-29T13:35:07;12;;;6.4;;
76548;SDS011;65391;52.068;4.542;2023-04-29T13:37:31;12;;;6.4;;
76548;SDS011;65391;52.068;4.542;2023-04-29T13:39:56;12;;;6.4;;
76548;SDS011;65391;52.068;4.542;2023-04-29T13:42:21;12;;;6.4;;
76548;SDS011;65391;52.068;4.542;2023-04-29T13:44:46;12;;;6.4;;
76548;SDS011;65391;52.068;4.542;2023-04-29T13:47:11;12;;;6.4;;
76548;SDS011;65391;52.068;4.542;2023-04-29T13:49:37;12;;;6.4;;
76548;SDS011;65391;52.068;4.542;2023-04-29T13:52:01;12;;;6.4;;
76548;SDS011;65391;52.068;4.542;2023-04-29T13:54:26;12;;;6.4;;
76548;SDS011;65391;52.068;4.542;2023-04-29T13:56:51;12;;;6.4;;
76548;SDS011;65391;52.068;4.542;2023-04-29T13:59:16;12;;;6.4;;
76548;SDS011;65391;52.068;4.542;2023-04-29T14:01:41;12;;;6.4;;
76548;SDS011;65391;52.068;4.542;2023-04-29T14:04:06;12;;;6.4;;
76548;SDS011;65391;52.068;4.542;2023-04-29T14:06:31;12;;;6.4;;
76548;SDS011;65391;52.068;4.542;2023-04-29T14:08:56;12;;;6.4;;
76548;SDS011;65391;52.068;4.542;2023-04-29T14:11:21;12;;;6.4;;
76548;SDS011;65391;52.068;4.542;2023-04-29T14:13:46;12;;;6.4;;
76548;SDS011;65391;52.068;4.542;2023-04-29T14:16:11;12;;;6.4;;
76548;SDS011;65391;52.068;4.542;2023-04-29T14:18:36;12;;;6.4;;
76548;SDS011;65391;52.068;4.542;2023-04-29T14:21:01;12;;;6.4;;
76548;SDS011;65391;52.068;4.542;2023-04-29T14:23:26;12;;;6.4;;
76548;SDS011;65391;52.068;4.542;2023-04-29T14:25:51;12;;;6.4;;
76548;SDS011;65391;52.068;4.542;2023-04-29T14:28:16;12;;;6.4;;
76548;SDS011;65391;52.068;4.542;2023-04-29T14:30:41;12;;;6.4;;
76548;SDS011;65391;52.068;4.542;2023-04-29T14:33:06;12;;;6.4;;
76548;SDS011;65391;52.068;4.542;2023-04-29T14:35:31;12;;;6.4;;
76548;SDS011;65391;52.068;4.542;2023-04-29T14:37:56;12;;;6.4;;
76548;SDS011;65391;52.068;4.542;2023-04-29T14:40:21;12;;;6.4;;
76548;SDS011;65391;52.068;4.542;2023-04-29T14:42:46;12;;;6.4;;
76548;SDS011;65391;52.068;4.542;2023-04-29T14:45:11;12;;;6.4;;
76548;SDS011;65391;52.068;4.542;2023-04-29T14:47:36;12;;;6.4;;
76548;SDS011;65391;52.068;4.542;2023-04-29T14:50:01;12;;;6.4;;
76548;SDS011;65391;52.068;4.542;2023-04-29T14:52:26;12;;;6.4;;
76548;SDS011;65391;52.068;4.542;2023-04-29T14:54:51;12;;;6.4;;
76548;SDS011;65391;52.068;4.542;2023-04-29T14:57:16;12;;;6.4;;